createdAt,value
2018-08-09T00:01:11.309Z,23.53
2018-08-09T00:03:39.781Z,23.50
2018-08-09T00:06:08.325Z,23.35
2018-08-09T00:08:36.861Z,23.30
2018-08-09T00:11:05.364Z,23.23
2018-08-09T00:13:33.909Z,23.23
2018-08-09T00:16:02.407Z,23.17
2018-08-09T00:18:30.971Z,23.21
2018-08-09T00:20:59.465Z,23.14
2018-08-09T00:23:27.981Z,23.16
2018-08-09T00:25:56.539Z,23.21
2018-08-09T00:28:25.051Z,23.22
2018-08-09T00:30:53.593Z,23.13
2018-08-09T00:33:22.175Z,23.12
2018-08-09T00:35:50.726Z,23.05
2018-08-09T00:38:20.053Z,22.90
2018-08-09T00:40:48.598Z,22.84
2018-08-09T00:43:17.148Z,22.83
2018-08-09T00:45:45.682Z,22.80
2018-08-09T00:48:14.217Z,22.73
2018-08-09T00:50:42.773Z,22.68
2018-08-09T00:53:11.321Z,22.64
2018-08-09T00:55:39.868Z,22.59
2018-08-09T00:58:08.417Z,22.50
2018-08-09T01:00:36.958Z,22.58
2018-08-09T01:03:05.834Z,22.60
2018-08-09T01:05:34.353Z,22.62
2018-08-09T01:08:02.865Z,22.61
2018-08-09T01:10:31.388Z,22.65
2018-08-09T01:12:59.932Z,22.60
2018-08-09T01:15:28.519Z,22.63
2018-08-09T01:17:57.034Z,22.57
2018-08-09T01:20:25.541Z,22.31
2018-08-09T01:22:54.163Z,22.25
2018-08-09T01:25:22.648Z,22.19
2018-08-09T01:27:51.220Z,22.10
2018-08-09T01:30:19.752Z,21.96
2018-08-09T01:32:48.291Z,21.86
2018-08-09T01:35:16.797Z,21.80
2018-08-09T01:37:45.339Z,21.82
2018-08-09T01:40:13.837Z,21.76
2018-08-09T01:42:53.517Z,21.67
2018-08-09T01:45:22.063Z,21.64
2018-08-09T01:47:50.599Z,21.53
2018-08-09T01:50:19.131Z,21.48
2018-08-09T01:52:47.665Z,21.36
2018-08-09T01:55:16.207Z,21.35
2018-08-09T01:57:44.759Z,21.37
2018-08-09T02:00:13.290Z,21.40
2018-08-09T02:02:41.724Z,21.35
2018-08-09T02:05:10.809Z,21.29
2018-08-09T02:07:39.327Z,21.31
2018-08-09T02:10:07.884Z,21.26
2018-08-09T02:12:36.356Z,21.34
2018-08-09T02:15:05.186Z,21.34
2018-08-09T02:17:33.689Z,21.39
2018-08-09T02:20:02.301Z,21.39
2018-08-09T02:22:30.797Z,21.36
2018-08-09T02:24:59.325Z,21.32
2018-08-09T02:27:27.827Z,21.33
2018-08-09T02:29:56.332Z,21.43
2018-08-09T02:32:24.829Z,21.35
2018-08-09T02:34:53.357Z,21.35
2018-08-09T02:37:21.889Z,21.37
2018-08-09T02:39:50.404Z,21.36
2018-08-09T02:42:18.933Z,21.41
2018-08-09T02:44:47.417Z,21.42
2018-08-09T02:47:15.961Z,21.35
2018-08-09T02:49:45.483Z,21.34
2018-08-09T02:52:13.993Z,21.28
2018-08-09T02:54:42.520Z,21.30
2018-08-09T02:57:11.049Z,21.26
2018-08-09T02:59:39.581Z,21.21
2018-08-09T03:02:08.097Z,21.24
2018-08-09T03:04:36.634Z,21.21
2018-08-09T03:07:05.373Z,21.20
2018-08-09T03:09:33.872Z,21.20
2018-08-09T03:12:02.358Z,21.17
2018-08-09T03:14:30.900Z,21.06
2018-08-09T03:16:59.433Z,21.03
2018-08-09T03:19:27.988Z,20.98
2018-08-09T03:21:56.553Z,21.00
2018-08-09T03:24:25.130Z,21.01
2018-08-09T03:26:53.610Z,20.95
2018-08-09T03:29:22.104Z,20.98
2018-08-09T03:31:50.614Z,20.90
2018-08-09T03:34:19.093Z,20.88
2018-08-09T03:36:47.642Z,20.84
2018-08-09T03:39:16.156Z,20.86
2018-08-09T03:41:44.682Z,20.89
2018-08-09T03:44:13.221Z,20.92
2018-08-09T03:46:41.760Z,20.91
2018-08-09T03:49:10.280Z,20.89
2018-08-09T03:51:38.812Z,20.92
2018-08-09T03:54:07.302Z,20.89
2018-08-09T03:56:35.837Z,20.86
2018-08-09T04:00:33.488Z,20.82
2018-08-09T04:03:01.991Z,20.94
2018-08-09T04:05:30.549Z,21.02
2018-08-09T04:07:59.090Z,21.14
2018-08-09T04:10:27.833Z,21.19
2018-08-09T04:12:56.386Z,21.26
2018-08-09T04:15:24.934Z,21.32
2018-08-09T04:17:53.527Z,21.38
2018-08-09T04:20:22.094Z,21.45
2018-08-09T04:22:50.552Z,21.14
2018-08-09T04:25:19.128Z,21.14
2018-08-09T04:27:47.701Z,21.17
2018-08-09T04:30:16.344Z,21.26
2018-08-09T04:32:45.366Z,21.34
2018-08-09T04:35:13.926Z,21.43
2018-08-09T04:37:42.439Z,21.38
2018-08-09T04:40:11.029Z,21.30
2018-08-09T04:42:39.587Z,21.40
2018-08-09T04:45:08.906Z,21.53
2018-08-09T04:47:37.681Z,21.54
2018-08-09T04:50:06.853Z,21.65
2018-08-09T04:52:35.778Z,21.59
2018-08-09T04:55:04.420Z,21.77
2018-08-09T04:57:33.033Z,21.86
2018-08-09T05:00:01.602Z,21.81
2018-08-09T05:02:30.500Z,21.70
2018-08-09T05:04:59.033Z,21.67
2018-08-09T05:07:27.578Z,21.56
2018-08-09T05:09:58.069Z,21.60
2018-08-09T05:12:26.613Z,21.60
2018-08-09T05:14:56.176Z,21.60
2018-08-09T05:17:24.734Z,21.73
2018-08-09T05:19:53.276Z,21.76
2018-08-09T05:22:21.839Z,21.76
2018-08-09T05:24:50.376Z,21.82
2018-08-09T05:27:18.897Z,21.98
2018-08-09T05:29:47.412Z,22.11
2018-08-09T05:32:16.017Z,22.16
2018-08-09T05:34:44.723Z,22.31
2018-08-09T05:37:13.265Z,22.39
2018-08-09T05:39:41.756Z,22.57
2018-08-09T05:42:10.295Z,22.69
2018-08-09T05:44:38.804Z,22.83
2018-08-09T05:47:07.377Z,23.06
2018-08-09T05:49:35.858Z,23.24
2018-08-09T05:52:04.483Z,23.46
2018-08-09T05:54:33.469Z,23.51
2018-08-09T05:57:02.027Z,23.76
2018-08-09T05:59:30.644Z,23.90
2018-08-09T06:01:59.280Z,23.86
2018-08-09T06:04:27.786Z,23.78
2018-08-09T06:06:56.853Z,23.92
2018-08-09T06:09:25.437Z,24.13
2018-08-09T06:11:54.001Z,24.23
2018-08-09T06:14:22.520Z,24.04
2018-08-09T06:16:51.137Z,24.11
2018-08-09T06:19:19.682Z,24.31
2018-08-09T06:21:48.256Z,24.64
2018-08-09T06:24:16.803Z,24.57
2018-08-09T06:26:45.455Z,24.73
2018-08-09T06:29:13.953Z,25.10
2018-08-09T06:31:42.525Z,25.23
2018-08-09T06:34:11.045Z,25.44
2018-08-09T06:36:39.593Z,25.63
2018-08-09T06:39:08.961Z,25.83
2018-08-09T06:41:38.484Z,25.82
2018-08-09T06:44:07.049Z,25.88
2018-08-09T06:46:35.560Z,26.12
2018-08-09T06:49:04.129Z,25.90
2018-08-09T06:51:32.644Z,26.16
2018-08-09T06:54:01.230Z,26.13
2018-08-09T06:56:30.153Z,26.09
2018-08-09T06:58:59.024Z,26.34
2018-08-09T07:01:27.532Z,26.87
2018-08-09T07:03:56.533Z,27.32
2018-08-09T07:06:25.018Z,27.88
2018-08-09T07:08:53.637Z,27.57
2018-08-09T07:11:22.177Z,27.67
2018-08-09T07:13:50.766Z,27.67
2018-08-09T07:16:19.253Z,27.62
2018-08-09T07:18:47.789Z,28.00
2018-08-09T07:21:16.498Z,27.52
2018-08-09T07:23:45.041Z,27.71
2018-08-09T07:26:13.577Z,28.36
2018-08-09T07:28:42.475Z,28.90
2018-08-09T07:31:11.325Z,29.50
2018-08-09T07:33:39.969Z,29.45
2018-08-09T07:36:08.514Z,30.38
2018-08-09T07:38:37.089Z,31.26
2018-08-09T07:41:05.637Z,33.16
2018-08-09T07:43:34.170Z,33.99
2018-08-09T07:46:03.305Z,35.51
2018-08-09T07:48:31.893Z,35.88
2018-08-09T07:51:00.377Z,36.42
2018-08-09T07:53:29.518Z,37.73
2018-08-09T07:55:58.037Z,38.41
2018-08-09T07:58:27.122Z,39.59
2018-08-09T08:00:56.604Z,38.24
2018-08-09T08:03:25.176Z,39.10
2018-08-09T08:05:53.695Z,37.81
2018-08-09T08:08:22.286Z,36.14
2018-08-09T08:10:50.795Z,36.69
2018-08-09T08:13:20.517Z,39.04
2018-08-09T08:15:49.063Z,37.75
2018-08-09T08:18:17.603Z,36.31
2018-08-09T08:20:46.171Z,36.70
2018-08-09T08:23:14.732Z,37.17
2018-08-09T08:25:43.265Z,36.72
2018-08-09T08:28:11.880Z,37.41
2018-08-09T08:30:40.427Z,38.52
2018-08-09T08:33:08.976Z,39.70
2018-08-09T08:35:37.457Z,40.25
2018-08-09T08:38:06.248Z,40.01
2018-08-09T08:40:34.745Z,40.08
2018-08-09T08:43:03.303Z,41.59
2018-08-09T08:45:31.835Z,41.85
2018-08-09T08:48:00.412Z,41.97
2018-08-09T08:50:28.938Z,42.94
2018-08-09T08:52:57.446Z,39.92
2018-08-09T08:55:25.991Z,39.85
2018-08-09T08:57:54.555Z,40.01
2018-08-09T09:00:23.097Z,40.54
2018-08-09T09:02:55.016Z,40.54
2018-08-09T09:05:23.596Z,37.84
2018-08-09T09:07:55.380Z,37.86
2018-08-09T09:10:23.943Z,38.54
2018-08-09T09:12:52.489Z,39.14
2018-08-09T09:15:24.769Z,39.15
2018-08-09T09:17:53.309Z,40.42
2018-08-09T09:20:21.823Z,38.84
2018-08-09T09:22:50.338Z,37.99
2018-08-09T09:25:18.853Z,38.22
2018-08-09T09:27:47.336Z,39.25
2018-08-09T09:30:17.353Z,41.98
2018-08-09T09:32:46.109Z,43.78
2018-08-09T09:35:14.630Z,45.19
2018-08-09T09:37:43.735Z,43.63
2018-08-09T09:40:12.285Z,43.59
2018-08-09T09:42:41.541Z,41.74
2018-08-09T09:45:15.890Z,40.90
2018-08-09T09:47:49.078Z,41.68
2018-08-09T09:50:17.689Z,43.76
2018-08-09T09:52:48.301Z,44.07
2018-08-09T09:55:16.826Z,43.96
2018-08-09T09:57:45.341Z,44.41
2018-08-09T10:00:19.154Z,44.96
2018-08-09T10:02:47.610Z,45.87
2018-08-09T10:05:16.460Z,44.87
2018-08-09T10:07:44.926Z,42.75
2018-08-09T10:10:13.449Z,41.60
2018-08-09T10:12:42.810Z,41.32
2018-08-09T10:15:11.525Z,41.70
2018-08-09T10:17:39.993Z,39.91
2018-08-09T10:20:09.005Z,39.75
2018-08-09T10:22:37.788Z,41.21
2018-08-09T10:25:06.916Z,43.02
2018-08-09T10:27:35.406Z,41.12
2018-08-09T10:30:04.017Z,38.91
2018-08-09T10:32:32.497Z,39.44
2018-08-09T10:35:01.052Z,38.79
2018-08-09T10:37:29.866Z,40.15
2018-08-09T10:39:58.447Z,40.30
2018-08-09T10:42:26.985Z,40.89
2018-08-09T10:44:55.579Z,40.55
2018-08-09T10:47:24.089Z,39.86
2018-08-09T10:49:52.605Z,39.01
2018-08-09T10:52:21.143Z,38.65
2018-08-09T10:54:49.644Z,37.37
2018-08-09T10:57:18.162Z,37.21
2018-08-09T10:59:46.725Z,38.03
2018-08-09T11:02:15.254Z,38.81
2018-08-09T11:04:44.200Z,39.08
2018-08-09T11:07:13.101Z,38.66
2018-08-09T11:09:41.637Z,39.87
2018-08-09T11:13:34.574Z,41.82
2018-08-09T11:16:03.102Z,42.01
2018-08-09T11:18:31.801Z,40.45
2018-08-09T11:21:00.535Z,39.42
2018-08-09T11:23:29.085Z,39.77
2018-08-09T11:25:58.424Z,41.90
2018-08-09T11:28:26.976Z,41.78
2018-08-09T11:30:55.837Z,39.93
2018-08-09T11:33:24.801Z,39.41
2018-08-09T11:35:53.496Z,39.40
2018-08-09T11:38:22.047Z,39.21
2018-08-09T11:40:50.729Z,38.63
2018-08-09T11:43:19.233Z,40.17
2018-08-09T11:45:47.849Z,42.05
2018-08-09T11:48:16.413Z,42.29
2018-08-09T11:50:45.291Z,40.41
2018-08-09T11:53:15.355Z,41.05
2018-08-09T11:55:43.897Z,40.88
2018-08-09T11:58:12.490Z,41.25
2018-08-09T12:00:42.253Z,41.51
2018-08-09T12:03:10.781Z,40.69
2018-08-09T12:05:39.340Z,40.27
2018-08-09T12:08:07.870Z,40.56
2018-08-09T12:10:36.381Z,39.86
2018-08-09T12:13:04.949Z,41.65
2018-08-09T12:15:33.545Z,41.82
2018-08-09T12:18:02.072Z,40.95
2018-08-09T12:20:30.684Z,40.40
2018-08-09T12:22:59.197Z,42.09
2018-08-09T12:25:27.740Z,42.99
2018-08-09T12:27:56.604Z,38.70
2018-08-09T12:30:25.111Z,37.76
2018-08-09T12:32:53.671Z,37.07
2018-08-09T12:35:22.150Z,36.99
2018-08-09T12:37:50.733Z,38.19
2018-08-09T12:40:19.221Z,37.99
2018-08-09T12:42:47.772Z,38.44
2018-08-09T12:45:16.268Z,38.86
2018-08-09T12:47:44.801Z,38.88
2018-08-09T12:50:14.416Z,37.85
2018-08-09T12:52:43.994Z,36.57
2018-08-09T12:55:13.696Z,37.67
2018-08-09T12:57:42.616Z,38.20
2018-08-09T13:00:13.078Z,37.34
2018-08-09T13:02:41.982Z,38.09
2018-08-09T13:05:11.827Z,37.78
2018-08-09T13:07:40.797Z,38.24
2018-08-09T13:10:15.986Z,39.07
2018-08-09T13:12:44.547Z,40.13
2018-08-09T13:15:14.162Z,39.64
2018-08-09T13:17:43.663Z,38.82
2018-08-09T13:20:15.202Z,39.38
2018-08-09T13:22:43.744Z,40.48
2018-08-09T13:25:12.357Z,40.06
2018-08-09T13:27:41.108Z,40.20
2018-08-09T13:30:12.233Z,41.24
2018-08-09T13:32:41.069Z,42.57
2018-08-09T13:35:09.925Z,42.83
2018-08-09T13:37:38.507Z,42.21
2018-08-09T13:40:10.733Z,42.32
2018-08-09T13:42:42.573Z,43.65
2018-08-09T13:45:13.640Z,44.45
2018-08-09T13:47:42.469Z,43.56
2018-08-09T13:50:11.780Z,40.62
2018-08-09T13:52:41.168Z,41.04
2018-08-09T13:56:36.680Z,40.62
2018-08-09T13:59:05.246Z,39.13
2018-08-09T14:01:33.814Z,39.31
2018-08-09T14:04:02.354Z,41.20
2018-08-09T14:06:30.821Z,42.36
2018-08-09T14:08:59.408Z,42.17
2018-08-09T14:11:27.998Z,41.04
2018-08-09T14:13:56.540Z,39.38
2018-08-09T14:16:25.064Z,39.07
2018-08-09T14:18:53.641Z,38.91
2018-08-09T14:21:22.145Z,37.81
2018-08-09T14:23:50.855Z,37.93
2018-08-09T14:26:19.378Z,38.41
2018-08-09T14:28:47.959Z,39.01
2018-08-09T14:31:18.608Z,39.31
2018-08-09T14:33:47.163Z,39.61
2018-08-09T14:36:15.643Z,39.27
2018-08-09T14:38:44.305Z,38.51
2018-08-09T14:41:13.242Z,38.09
2018-08-09T14:43:41.768Z,38.59
2018-08-09T14:46:10.267Z,39.68
2018-08-09T14:48:38.796Z,41.09
2018-08-09T14:51:07.337Z,42.47
2018-08-09T14:53:35.917Z,42.42
2018-08-09T14:56:04.492Z,43.27
2018-08-09T14:58:33.048Z,41.94
2018-08-09T15:01:01.546Z,39.73
2018-08-09T15:03:30.105Z,38.91
2018-08-09T15:05:58.650Z,39.57
2018-08-09T15:08:27.156Z,39.91
2018-08-09T15:10:55.679Z,40.39
2018-08-09T15:13:24.232Z,41.51
2018-08-09T15:15:52.777Z,40.93
2018-08-09T15:18:21.261Z,39.51
2018-08-09T15:20:49.744Z,39.32
2018-08-09T15:23:18.302Z,39.98
2018-08-09T15:25:46.797Z,39.21
2018-08-09T15:28:15.367Z,38.74
2018-08-09T15:30:43.834Z,38.03
2018-08-09T15:33:12.333Z,37.90
2018-08-09T15:35:40.840Z,37.30
2018-08-09T15:38:09.444Z,38.22
2018-08-09T15:40:37.961Z,39.27
2018-08-09T15:43:06.508Z,41.10
2018-08-09T15:45:35.022Z,41.35
2018-08-09T15:48:03.609Z,41.77
2018-08-09T15:50:32.171Z,41.85
2018-08-09T15:53:00.704Z,41.15
2018-08-09T15:55:29.192Z,39.87
2018-08-09T15:57:57.789Z,38.34
2018-08-09T16:00:26.342Z,37.35
2018-08-09T16:02:54.858Z,37.26
2018-08-09T16:05:23.428Z,36.65
2018-08-09T16:07:51.976Z,36.40
2018-08-09T16:10:20.536Z,37.33
2018-08-09T16:12:49.102Z,39.16
2018-08-09T16:15:18.977Z,38.53
2018-08-09T16:17:48.369Z,38.20
2018-08-09T16:20:17.030Z,37.35
2018-08-09T16:22:46.269Z,37.14
2018-08-09T16:25:17.213Z,36.80
2018-08-09T16:27:45.845Z,36.67
2018-08-09T16:30:18.058Z,37.48
2018-08-09T16:32:46.603Z,38.33
2018-08-09T16:35:15.347Z,38.12
2018-08-09T16:37:44.584Z,38.89
2018-08-09T16:40:18.713Z,38.59
2018-08-09T16:42:47.745Z,38.34
2018-08-09T16:45:17.496Z,38.71
2018-08-09T16:47:46.073Z,38.65
2018-08-09T16:50:19.841Z,39.20
2018-08-09T16:52:50.249Z,38.67
2018-08-09T16:55:19.697Z,38.82
2018-08-09T16:57:48.401Z,38.88
2018-08-09T17:00:18.357Z,39.09
2018-08-09T17:02:46.891Z,39.38
2018-08-09T17:05:18.528Z,39.82
2018-08-09T17:07:47.189Z,40.06
2018-08-09T17:10:18.491Z,39.74
2018-08-09T17:12:47.272Z,40.07
2018-08-09T17:15:21.365Z,39.11
2018-08-09T17:17:50.033Z,38.06
2018-08-09T17:20:24.760Z,37.31
2018-08-09T17:22:53.357Z,37.04
2018-08-09T17:25:21.937Z,37.07
2018-08-09T17:27:50.910Z,36.98
2018-08-09T17:30:21.094Z,37.17
2018-08-09T17:32:49.600Z,37.40
2018-08-09T17:35:18.785Z,37.49
2018-08-09T17:37:47.420Z,37.50
2018-08-09T17:40:22.821Z,37.42
2018-08-09T17:42:52.289Z,37.03
2018-08-09T17:45:25.660Z,36.93
2018-08-09T17:47:54.506Z,36.55
2018-08-09T17:50:23.393Z,36.17
2018-08-09T17:52:51.952Z,35.62
2018-08-09T17:55:20.494Z,35.14
2018-08-09T17:57:49.058Z,34.93
2018-08-09T18:00:23.984Z,34.63
2018-08-09T18:02:52.953Z,34.13
2018-08-09T18:05:21.618Z,33.93
2018-08-09T18:07:50.515Z,33.69
2018-08-09T18:10:27.162Z,33.48
2018-08-09T18:12:56.090Z,33.24
2018-08-09T18:15:26.001Z,33.02
2018-08-09T18:17:55.114Z,32.94
2018-08-09T18:20:29.169Z,32.80
2018-08-09T18:22:58.101Z,32.62
2018-08-09T18:25:30.054Z,32.38
2018-08-09T18:27:58.744Z,32.02
2018-08-09T18:30:27.302Z,31.38
2018-08-09T18:32:56.769Z,30.96
2018-08-09T18:35:25.333Z,30.39
2018-08-09T18:37:54.166Z,29.95
2018-08-09T18:40:24.907Z,29.71
2018-08-09T18:42:53.566Z,29.58
2018-08-09T18:45:22.704Z,29.46
2018-08-09T18:47:51.397Z,29.39
2018-08-09T18:50:26.351Z,29.28
2018-08-09T18:52:54.987Z,29.17
2018-08-09T18:55:23.856Z,29.10
2018-08-09T18:57:52.496Z,29.01
2018-08-09T19:00:26.951Z,28.91
2018-08-09T19:02:55.600Z,28.82
2018-08-09T19:05:24.462Z,28.79
2018-08-09T19:07:53.058Z,28.73
2018-08-09T19:10:24.037Z,28.69
2018-08-09T19:12:52.594Z,28.65
2018-08-09T19:15:21.229Z,28.63
2018-08-09T19:17:50.001Z,28.55
2018-08-09T19:20:23.573Z,28.49
2018-08-09T19:22:52.380Z,28.42
2018-08-09T19:25:21.089Z,28.34
2018-08-09T19:27:49.707Z,28.20
2018-08-09T19:30:19.984Z,28.13
2018-08-09T19:32:49.465Z,28.07
2018-08-09T19:35:20.471Z,27.93
2018-08-09T19:37:49.119Z,27.87
2018-08-09T19:40:19.519Z,27.79
2018-08-09T19:42:48.152Z,27.73
2018-08-09T19:45:17.849Z,27.64
2018-08-09T19:47:46.513Z,27.44
2018-08-09T19:50:19.524Z,27.34
2018-08-09T19:52:48.243Z,27.33
2018-08-09T19:55:20.678Z,27.33
2018-08-09T19:57:49.933Z,27.29
2018-08-09T20:00:22.094Z,27.26
2018-08-09T20:02:50.824Z,27.25
2018-08-09T20:05:19.484Z,27.22
2018-08-09T20:07:48.141Z,27.21
2018-08-09T20:10:16.819Z,27.18
2018-08-09T20:12:46.265Z,27.14
2018-08-09T20:15:17.082Z,27.13
2018-08-09T20:17:45.756Z,27.14
2018-08-09T20:20:15.906Z,27.09
2018-08-09T20:22:44.614Z,27.08
2018-08-09T20:25:13.889Z,27.04
2018-08-09T20:27:43.034Z,27.03
2018-08-09T20:30:13.247Z,26.90
2018-08-09T20:32:42.293Z,26.81
2018-08-09T20:35:13.357Z,26.77
2018-08-09T20:37:42.821Z,26.80
2018-08-09T20:40:12.076Z,26.66
2018-08-09T20:42:41.080Z,26.65
2018-08-09T20:45:11.306Z,26.57
2018-08-09T20:47:39.910Z,26.55
2018-08-09T20:50:12.014Z,26.51
2018-08-09T20:52:41.345Z,26.51
2018-08-09T20:55:10.438Z,26.49
2018-08-09T20:57:40.336Z,26.52
2018-08-09T21:00:24.430Z,26.49
2018-08-09T21:02:54.359Z,26.52
2018-08-09T21:05:25.127Z,26.60
2018-08-09T21:07:54.926Z,26.64
2018-08-09T21:10:23.914Z,26.71
2018-08-09T21:12:52.465Z,26.68
2018-08-09T21:15:21.328Z,26.59
2018-08-09T21:17:49.946Z,26.52
2018-08-09T21:20:18.527Z,26.20
2018-08-09T21:22:47.947Z,25.87
2018-08-09T21:25:16.563Z,25.62
2018-08-09T21:27:45.467Z,25.47
2018-08-09T21:30:16.221Z,25.29
2018-08-09T21:32:45.414Z,25.14
2018-08-09T21:35:13.935Z,24.98
2018-08-09T21:37:43.046Z,24.93
2018-08-09T21:40:12.445Z,24.98
2018-08-09T21:42:41.134Z,25.04
2018-08-09T21:45:12.887Z,25.01
2018-08-09T21:47:41.557Z,25.02
2018-08-09T21:50:12.342Z,24.87
2018-08-09T21:52:41.191Z,24.93
2018-08-09T21:55:10.600Z,24.90
2018-08-09T21:57:39.181Z,24.82
2018-08-09T22:00:39.210Z,24.85
2018-08-09T22:03:07.820Z,24.88
2018-08-09T22:05:41.786Z,24.87
2018-08-09T22:08:15.530Z,24.77
2018-08-09T22:10:49.424Z,24.81
2018-08-09T22:13:23.213Z,24.79
2018-08-09T22:15:57.014Z,24.78
2018-08-09T22:18:30.878Z,24.83
2018-08-09T22:21:04.640Z,24.69
2018-08-09T22:23:33.232Z,24.74
2018-08-09T22:26:02.023Z,24.59
2018-08-09T22:28:30.529Z,24.60
2018-08-09T22:30:59.251Z,24.61
2018-08-09T22:33:27.970Z,24.59
2018-08-09T22:35:56.698Z,24.54
2018-08-09T22:38:25.330Z,24.42
2018-08-09T22:40:53.859Z,24.44
2018-08-09T22:43:22.425Z,24.32
2018-08-09T22:45:50.894Z,24.35
2018-08-09T22:48:19.451Z,24.31
2018-08-09T22:50:48.004Z,24.28
2018-08-09T22:53:17.329Z,24.12
2018-08-09T22:55:46.337Z,24.12
2018-08-09T22:58:15.145Z,24.00
2018-08-09T23:00:43.657Z,23.89
2018-08-09T23:03:13.363Z,23.76
2018-08-09T23:05:41.965Z,23.76
2018-08-09T23:13:32.314Z,23.27
2018-08-09T23:16:02.025Z,23.21
2018-08-09T23:18:30.569Z,23.19
2018-08-09T23:20:59.068Z,23.11
2018-08-09T23:23:27.633Z,23.08
2018-08-09T23:25:56.141Z,23.05
2018-08-09T23:28:24.715Z,23.02
2018-08-09T23:30:53.222Z,22.85
2018-08-09T23:33:24.177Z,22.80
2018-08-09T23:35:52.705Z,22.77
2018-08-09T23:38:21.309Z,22.79
2018-08-09T23:40:49.842Z,22.84
2018-08-09T23:43:18.369Z,22.89
2018-08-09T23:45:46.911Z,22.97
2018-08-09T23:48:15.392Z,23.05
2018-08-09T23:50:43.973Z,23.08
2018-08-09T23:53:12.452Z,23.18
2018-08-09T23:55:40.980Z,23.17
2018-08-09T23:58:09.484Z,23.21
